Time;durP1;ratioP1;P1;durP2;ratioP2;P2;SDS_P1;SDS_P2;PMS_P1;PMS_P2;Temp;Humidity;BMP_temperature;BMP_pressure;BME280_temperature;BME280_humidity;BME280_pressure;Samples;Min_cycle;Max_cycle;Signal;HPM_P1;HPM_P2
2024/02/25 00:01:27;;;;;;;4.00;1.50;;;;;;;2.65;100.00;99832.00;5070394;28;20442;-83
2024/02/25 00:04:01;;;;;;;4.32;1.67;;;;;;;2.69;100.00;99835.00;5057981;28;20435;-81
2024/02/25 00:06:30;;;;;;;4.22;1.73;;;;;;;2.63;100.00;99830.63;5072630;28;20421;-83
2024/02/25 00:09:05;;;;;;;2.88;1.40;;;;;;;2.66;100.00;99827.44;5074054;28;20435;-83
2024/02/25 00:11:40;;;;;;;3.03;1.70;;;;;;;2.65;100.00;99829.34;5053854;28;20451;-83
2024/02/25 00:14:13;;;;;;;2.63;1.40;;;;;;;2.67;100.00;99824.50;5071953;28;20522;-84
2024/02/25 00:16:46;;;;;;;2.47;1.42;;;;;;;2.59;100.00;99819.56;5070652;28;20425;-83
2024/02/25 00:19:21;;;;;;;3.43;1.50;;;;;;;2.52;100.00;99824.31;5060768;28;20467;-84
2024/02/25 00:21:49;;;;;;;3.22;1.50;;;;;;;2.35;100.00;99818.97;5074821;28;20422;-83
2024/02/25 00:24:19;;;;;;;3.45;1.60;;;;;;;2.28;100.00;99819.13;5062667;28;20432;-84
2024/02/25 00:26:52;;;;;;;3.78;1.75;;;;;;;2.25;100.00;99814.28;5043197;28;20426;-84
2024/02/25 00:29:26;;;;;;;4.50;1.73;;;;;;;2.30;100.00;99816.19;5078360;28;20422;-83
2024/02/25 00:31:54;;;;;;;3.88;1.52;;;;;;;2.25;100.00;99816.13;5077910;28;20405;-84
2024/02/25 00:34:28;;;;;;;3.15;1.70;;;;;;;2.14;100.00;99824.03;5079365;28;20782;-82
2024/02/25 00:36:57;;;;;;;4.18;1.70;;;;;;;2.11;100.00;99827.19;5073561;28;20418;-83
2024/02/25 00:39:30;;;;;;;3.72;1.60;;;;;;;2.10;100.00;99827.44;5080845;28;20406;-84
2024/02/25 00:42:01;;;;;;;5.38;1.70;;;;;;;2.04;100.00;99827.38;5063521;28;20423;-83
2024/02/25 00:44:36;;;;;;;3.00;1.58;;;;;;;1.96;100.00;99824.25;5057531;28;20443;-82
2024/02/25 00:47:09;;;;;;;3.42;1.50;;;;;;;1.91;100.00;99833.06;5066004;28;20442;-84
2024/02/25 00:49:38;;;;;;;3.08;1.70;;;;;;;1.85;100.00;99829.47;5060603;28;20418;-84
2024/02/25 00:52:06;;;;;;;4.45;1.80;;;;;;;1.80;100.00;99839.31;5073053;28;20426;-83
2024/02/25 00:54:43;;;;;;;4.32;1.70;;;;;;;1.80;100.00;99842.78;5062660;28;20440;-83
2024/02/25 00:57:12;;;;;;;3.10;1.73;;;;;;;1.75;100.00;99840.03;5058351;28;20423;-84
2024/02/25 00:59:45;;;;;;;3.85;1.73;;;;;;;1.70;100.00;99838.06;5079102;28;20421;-84
2024/02/25 01:02:13;;;;;;;3.72;1.77;;;;;;;1.64;100.00;99841.72;5054919;28;20429;-83
2024/02/25 01:04:43;;;;;;;3.80;1.85;;;;;;;1.60;100.00;99837.06;5073715;28;20632;-84
2024/02/25 01:07:11;;;;;;;4.85;1.90;;;;;;;1.63;100.00;99840.09;5059990;28;20822;-84
2024/02/25 01:09:40;;;;;;;4.93;1.90;;;;;;;1.53;100.00;99839.91;5073789;28;21388;-84
2024/02/25 01:12:08;;;;;;;3.85;1.67;;;;;;;1.47;100.00;99844.34;5061210;28;20425;-84
2024/02/25 01:14:36;;;;;;;4.53;2.08;;;;;;;1.36;100.00;99834.50;5077226;28;20424;-83
2024/02/25 01:17:04;;;;;;;4.47;1.83;;;;;;;1.35;100.00;99836.38;5073477;28;20442;-81
2024/02/25 01:19:33;;;;;;;4.05;1.90;;;;;;;1.28;100.00;99834.88;5060935;28;20433;-83
2024/02/25 01:22:07;;;;;;;3.97;2.00;;;;;;;1.31;100.00;99839.75;5079310;28;20416;-84
2024/02/25 01:24:40;;;;;;;4.50;1.80;;;;;;;1.28;100.00;99838.38;5081415;28;20426;-84
2024/02/25 01:27:14;;;;;;;3.70;1.83;;;;;;;1.28;100.00;99841.06;5075821;28;20427;-84
2024/02/25 01:29:47;;;;;;;5.50;2.10;;;;;;;1.21;100.00;99836.91;5058364;28;20424;-83
2024/02/25 01:32:16;;;;;;;3.95;2.00;;;;;;;1.18;100.00;99840.88;5061145;28;21036;-82
2024/02/25 01:34:50;;;;;;;3.75;1.90;;;;;;;1.12;100.00;99850.69;5060447;28;20426;-84
2024/02/25 01:37:19;;;;;;;4.57;2.17;;;;;;;1.08;100.00;99837.97;5057781;28;20426;-84
2024/02/25 01:39:47;;;;;;;4.88;2.00;;;;;;;1.06;100.00;99827.50;5056439;28;20427;-83
2024/02/25 01:42:22;;;;;;;4.63;2.33;;;;;;;1.08;100.00;99838.81;5077786;28;20448;-83
2024/02/25 01:44:56;;;;;;;5.18;2.22;;;;;;;1.04;100.00;99828.78;5074079;28;20883;-82
2024/02/25 01:47:24;;;;;;;5.20;2.10;;;;;;;1.05;100.00;99823.22;5059509;28;20533;-83
2024/02/25 01:49:53;;;;;;;4.45;2.33;;;;;;;1.05;100.00;99833.94;5075517;28;20429;-82
2024/02/25 01:52:28;;;;;;;5.28;2.40;;;;;;;1.07;100.00;99829.13;5064729;28;20421;-82
2024/02/25 01:54:57;;;;;;;4.60;2.35;;;;;;;1.07;100.00;99829.13;5080066;28;20821;-83
2024/02/25 01:57:25;;;;;;;4.63;2.30;;;;;;;1.07;100.00;99823.78;5057027;28;20434;-84
2024/02/25 01:59:55;;;;;;;4.70;2.38;;;;;;;1.05;100.00;99823.22;5079127;28;20423;-84
2024/02/25 02:02:28;;;;;;;5.78;2.60;;;;;;;1.03;100.00;99822.63;5060281;28;20454;-83
2024/02/25 02:04:56;;;;;;;5.07;2.22;;;;;;;1.00;100.00;99828.47;5063915;28;20435;-84
2024/02/25 02:07:25;;;;;;;6.03;2.30;;;;;;;0.99;100.00;99832.19;5062935;28;20972;-83
2024/02/25 02:09:59;;;;;;;4.80;2.30;;;;;;;0.99;100.00;99821.47;5058357;28;20442;-84
2024/02/25 02:12:40;;;;;;;4.53;2.10;;;;;;;0.99;100.00;99830.31;5075972;28;20449;-83
2024/02/25 02:15:10;;;;;;;4.10;2.10;;;;;;;0.94;100.00;99829.38;5059905;28;20435;-83
2024/02/25 02:17:44;;;;;;;4.32;2.00;;;;;;;0.92;100.00;99813.56;5058124;28;20425;-83
2024/02/25 02:20:18;;;;;;;5.22;2.17;;;;;;;0.91;100.00;99819.16;5077098;28;20509;-84
2024/02/25 02:22:52;;;;;;;4.60;2.00;;;;;;;0.91;100.00;99820.00;5079876;28;20445;-84
2024/02/25 02:25:25;;;;;;;5.82;2.30;;;;;;;0.90;100.00;99817.53;5056477;28;20948;-84
2024/02/25 02:27:54;;;;;;;4.25;2.00;;;;;;;0.88;100.00;99812.41;5057769;28;20441;-82
2024/02/25 02:30:27;;;;;;;4.35;2.10;;;;;;;0.89;100.00;99811.34;5072902;28;20418;-84
2024/02/25 02:32:55;;;;;;;4.43;2.00;;;;;;;0.91;100.00;99814.63;5059397;28;20440;-83
2024/02/25 02:35:29;;;;;;;4.40;2.00;;;;;;;0.85;100.00;99810.19;5074611;28;20442;-84
2024/02/25 02:37:58;;;;;;;4.05;2.00;;;;;;;0.85;100.00;99815.56;5078272;28;20420;-83
2024/02/25 02:40:31;;;;;;;4.10;2.00;;;;;;;0.93;100.00;99815.19;5079028;28;20429;-83
2024/02/25 02:43:00;;;;;;;4.78;2.15;;;;;;;0.90;100.00;99813.00;5058866;28;20903;-83
2024/02/25 02:45:28;;;;;;;4.15;1.88;;;;;;;0.94;100.00;99818.66;5079022;28;20418;-83
2024/02/25 02:48:02;;;;;;;5.72;2.03;;;;;;;0.87;100.00;99807.28;5077027;28;20424;-83
2024/02/25 02:50:36;;;;;;;3.88;1.98;;;;;;;0.86;100.00;99801.13;5075093;28;20870;-83
2024/02/25 02:53:05;;;;;;;4.20;1.90;;;;;;;0.81;100.00;99803.69;5075471;28;20931;-85
2024/02/25 02:55:38;;;;;;;4.27;1.97;;;;;;;0.75;100.00;99812.69;5055721;28;20523;-83
2024/02/25 02:58:11;;;;;;;4.45;2.30;;;;;;;0.77;100.00;99806.00;5073168;28;20431;-83
2024/02/25 03:00:45;;;;;;;4.13;2.00;;;;;;;0.78;100.00;99799.63;5053447;28;20770;-82
2024/02/25 03:03:18;;;;;;;4.72;2.10;;;;;;;0.73;100.00;99802.19;5075956;28;21488;-84
2024/02/25 03:05:51;;;;;;;4.37;2.00;;;;;;;0.72;100.00;99797.91;5056366;28;20509;-83
2024/02/25 03:08:26;;;;;;;4.28;1.90;;;;;;;0.68;100.00;99796.75;5061377;28;20426;-84
2024/02/25 03:10:54;;;;;;;4.43;1.98;;;;;;;0.62;100.00;99800.34;5077698;28;20769;-84
2024/02/25 03:13:28;;;;;;;3.72;1.80;;;;;;;0.60;100.00;99799.78;5064321;28;20441;-83
2024/02/25 03:16:01;;;;;;;4.07;1.77;;;;;;;0.65;100.00;99802.56;5062037;28;20516;-84
2024/02/25 03:18:29;;;;;;;3.47;1.70;;;;;;;0.58;100.00;99802.69;5054656;28;20451;-82
2024/02/25 03:21:03;;;;;;;4.80;1.92;;;;;;;0.50;100.00;99817.25;5075168;28;20912;-83
2024/02/25 03:23:38;;;;;;;4.95;1.95;;;;;;;0.50;100.00;99805.72;5071075;28;20423;-84
2024/02/25 03:26:15;;;;;;;4.28;1.80;;;;;;;0.53;100.00;99804.47;5060822;28;20427;-83
2024/02/25 03:28:48;;;;;;;4.47;1.73;;;;;;;0.48;100.00;99803.28;5073834;28;20421;-83
2024/02/25 03:31:21;;;;;;;4.07;2.00;;;;;;;0.52;100.00;99803.63;5076076;28;20417;-83
2024/02/25 03:33:55;;;;;;;5.75;1.83;;;;;;;0.55;100.00;99799.66;5076405;28;20424;-83
2024/02/25 03:36:23;;;;;;;4.38;2.00;;;;;;;0.49;100.00;99812.94;5060599;28;20431;-84
2024/02/25 03:38:52;;;;;;;3.83;1.80;;;;;;;0.55;100.00;99810.38;5071562;28;20926;-83
2024/02/25 03:41:26;;;;;;;3.55;1.75;;;;;;;0.47;100.00;99808.84;5074382;28;20430;-83
2024/02/25 03:43:59;;;;;;;4.95;1.80;;;;;;;0.48;100.00;99810.50;5078267;28;20418;-83
2024/02/25 03:46:27;;;;;;;4.65;1.70;;;;;;;0.46;100.00;99807.25;5078868;28;20755;-83
2024/02/25 03:48:55;;;;;;;3.63;1.60;;;;;;;0.43;100.00;99810.38;5057264;28;20434;-84
2024/02/25 03:51:29;;;;;;;6.50;1.60;;;;;;;0.50;100.00;99814.56;5054858;28;20881;-84
2024/02/25 03:54:04;;;;;;;2.95;1.52;;;;;;;0.41;100.00;99813.28;5053563;28;20936;-83
2024/02/25 03:56:37;;;;;;;3.70;1.77;;;;;;;0.43;100.00;99810.38;5075807;28;20427;-84
2024/02/25 03:59:10;;;;;;;3.90;1.60;;;;;;;0.46;100.00;99802.69;5074532;28;20421;-83
2024/02/25 04:01:43;;;;;;;3.83;1.80;;;;;;;0.49;100.00;99807.59;5060669;28;21364;-84
2024/02/25 04:04:16;;;;;;;3.63;1.83;;;;;;;0.48;100.00;99797.13;5077235;28;20437;-82
2024/02/25 04:06:44;;;;;;;3.63;1.63;;;;;;;0.62;100.00;99797.66;5061258;28;20425;-84
2024/02/25 04:09:14;;;;;;;5.25;2.13;;;;;;;0.59;100.00;99790.91;5071205;28;21578;-84
2024/02/25 04:11:42;;;;;;;6.15;2.70;;;;;;;0.58;100.00;99786.63;5073111;28;20425;-83
2024/02/25 04:14:10;;;;;;;5.32;2.60;;;;;;;0.57;100.00;99779.66;5072880;28;20421;-84
2024/02/25 04:16:39;;;;;;;7.65;2.45;;;;;;;0.49;100.00;99788.03;5057053;28;20442;-83
2024/02/25 04:19:12;;;;;;;4.93;2.30;;;;;;;0.44;100.00;99787.91;5060257;28;20430;-83
2024/02/25 04:21:41;;;;;;;6.72;1.92;;;;;;;0.44;100.00;99791.44;5075193;28;20437;-83
2024/02/25 04:24:09;;;;;;;3.80;1.90;;;;;;;0.43;100.00;99791.63;5080688;28;20395;-84
2024/02/25 04:26:39;;;;;;;4.35;1.90;;;;;;;0.39;100.00;99783.28;5059768;28;20784;-83
2024/02/25 04:29:12;;;;;;;4.03;1.83;;;;;;;0.43;100.00;99783.59;5075050;28;20420;-82
2024/02/25 04:31:46;;;;;;;3.90;1.70;;;;;;;0.40;100.00;99779.56;5072989;28;20450;-84
2024/02/25 04:34:20;;;;;;;3.35;1.50;;;;;;;0.41;100.00;99789.19;5071503;28;20431;-82
2024/02/25 04:36:53;;;;;;;5.45;1.90;;;;;;;0.38;100.00;99784.31;5074558;28;22303;-83
2024/02/25 04:39:26;;;;;;;2.20;1.50;;;;;;;0.40;100.00;99774.22;5058954;28;20431;-83
2024/02/25 04:41:56;;;;;;;3.95;2.03;;;;;;;0.33;100.00;99786.88;5068497;28;20444;-83
2024/02/25 04:44:24;;;;;;;5.60;2.90;;;;;;;0.32;100.00;99785.28;5065409;28;20433;-83
2024/02/25 04:46:52;;;;;;;6.00;2.23;;;;;;;0.30;100.00;99784.69;5060968;28;20533;-83
2024/02/25 04:49:21;;;;;;;3.95;1.83;;;;;;;0.33;100.00;99779.69;5060842;28;20429;-82
2024/02/25 04:51:49;;;;;;;3.42;1.52;;;;;;;0.32;100.00;99775.38;5078222;28;20959;-80
2024/02/25 04:54:22;;;;;;;4.13;1.70;;;;;;;0.26;100.00;99776.31;5076731;28;20427;-82
2024/02/25 04:56:56;;;;;;;3.75;1.60;;;;;;;0.34;100.00;99777.81;5077538;28;20426;-81
2024/02/25 04:59:25;;;;;;;4.10;1.60;;;;;;;0.32;100.00;99767.34;5080152;28;20421;-84
2024/02/25 05:01:53;;;;;;;4.97;1.52;;;;;;;0.29;100.00;99765.13;5070721;28;20436;-83
2024/02/25 05:04:27;;;;;;;3.90;1.60;;;;;;;0.32;100.00;99769.22;5064559;28;20919;-81
2024/02/25 05:07:00;;;;;;;3.17;1.60;;;;;;;0.31;100.00;99755.00;5077431;28;20850;-83
2024/02/25 05:09:33;;;;;;;5.05;1.65;;;;;;;0.34;100.00;99757.19;5057836;28;20425;-83
2024/02/25 05:12:08;;;;;;;3.50;1.60;;;;;;;0.34;100.00;99761.75;5058963;28;20429;-82
2024/02/25 05:14:36;;;;;;;3.28;1.67;;;;;;;0.33;100.00;99752.91;5080013;28;20937;-81
2024/02/25 05:17:04;;;;;;;3.97;1.58;;;;;;;0.35;100.00;99752.69;5079224;28;20771;-81
2024/02/25 05:19:38;;;;;;;3.38;1.75;;;;;;;0.33;100.00;99752.91;5078039;28;20430;-83
2024/02/25 05:22:06;;;;;;;7.20;2.88;;;;;;;0.41;100.00;99749.03;5060414;28;20429;-83
2024/02/25 05:24:36;;;;;;;5.00;2.38;;;;;;;0.42;100.00;99750.69;5075367;28;20422;-83
2024/02/25 05:27:11;;;;;;;3.45;1.80;;;;;;;0.46;100.00;99749.16;5058535;28;20915;-83
2024/02/25 05:29:39;;;;;;;3.65;1.70;;;;;;;0.53;100.00;99745.56;5057351;28;20427;-83
2024/02/25 05:32:08;;;;;;;3.10;1.70;;;;;;;0.59;100.00;99745.41;5066874;28;20451;-82
2024/02/25 05:34:41;;;;;;;4.00;1.80;;;;;;;0.63;100.00;99743.06;5076920;28;20795;-84
2024/02/25 05:37:15;;;;;;;4.45;1.90;;;;;;;0.68;100.00;99738.63;5061806;28;20432;-82
2024/02/25 05:39:49;;;;;;;5.38;2.25;;;;;;;0.71;100.00;99733.88;5078958;28;20427;-81
2024/02/25 05:42:19;;;;;;;5.28;1.90;;;;;;;0.75;100.00;99733.16;5076848;28;20431;-83
2024/02/25 05:44:53;;;;;;;5.57;2.13;;;;;;;0.83;100.00;99731.97;5061646;28;20446;-84
2024/02/25 05:47:22;;;;;;;4.28;1.88;;;;;;;0.83;100.00;99737.31;5074776;28;20453;-84
2024/02/25 05:49:55;;;;;;;4.90;2.10;;;;;;;0.92;100.00;99741.22;5056678;28;20424;-84
2024/02/25 05:52:28;;;;;;;3.72;1.90;;;;;;;0.88;100.00;99737.41;5076242;28;20838;-84
2024/02/25 05:55:03;;;;;;;5.10;2.03;;;;;;;0.80;100.00;99738.59;5058666;28;20881;-84
2024/02/25 05:57:37;;;;;;;5.55;2.72;;;;;;;0.78;100.00;99738.00;5062224;28;21530;-82
2024/02/25 06:00:12;;;;;;;5.45;2.78;;;;;;;0.73;100.00;99734.44;5077888;28;20435;-84
2024/02/25 06:02:45;;;;;;;5.82;2.70;;;;;;;0.68;100.00;99738.63;5073440;28;20431;-82
2024/02/25 06:05:19;;;;;;;6.75;2.45;;;;;;;0.68;100.00;99737.81;5067063;28;20436;-82
2024/02/25 06:07:47;;;;;;;6.07;2.60;;;;;;;0.65;100.00;99732.97;5059578;28;20429;-84
2024/02/25 06:10:20;;;;;;;4.60;2.10;;;;;;;0.67;100.00;99726.28;5061326;28;21041;-83
2024/02/25 06:12:55;;;;;;;4.72;2.10;;;;;;;0.66;100.00;99724.69;5061693;28;22062;-84
2024/02/25 06:15:28;;;;;;;4.68;2.25;;;;;;;0.72;100.00;99730.94;5060152;28;20430;-82
2024/02/25 06:18:01;;;;;;;4.40;1.80;;;;;;;0.73;100.00;99732.56;5074668;28;20422;-84
2024/02/25 06:20:30;;;;;;;3.75;1.80;;;;;;;0.77;100.00;99733.69;5075609;28;20440;-79
2024/02/25 06:23:03;;;;;;;6.22;2.10;;;;;;;0.81;100.00;99723.34;5055751;28;20441;-81
2024/02/25 06:25:32;;;;;;;3.90;2.03;;;;;;;0.88;100.00;99725.88;5056425;28;20431;-81
2024/02/25 06:28:06;;;;;;;5.53;2.00;;;;;;;0.88;100.00;99726.69;5058100;28;20438;-82
2024/02/25 06:30:40;;;;;;;5.30;2.05;;;;;;;0.91;100.00;99733.44;5060383;28;20799;-82
2024/02/25 06:33:08;;;;;;;3.67;1.70;;;;;;;0.95;100.00;99730.06;5072308;28;20968;-82
2024/02/25 06:35:36;;;;;;;3.53;1.90;;;;;;;0.99;100.00;99731.16;5055650;28;20424;-80
2024/02/25 06:38:09;;;;;;;3.33;1.75;;;;;;;1.07;100.00;99729.19;5069259;28;20419;-82
2024/02/25 06:40:43;;;;;;;4.45;1.67;;;;;;;1.09;100.00;99730.56;5056422;28;20443;-81
2024/02/25 06:43:17;;;;;;;3.95;2.00;;;;;;;1.09;100.00;99719.84;5072836;28;20878;-81
2024/02/25 06:45:51;;;;;;;6.57;2.95;;;;;;;1.16;100.00;99722.34;5060993;28;20435;-80
2024/02/25 06:48:20;;;;;;;5.40;2.17;;;;;;;1.18;100.00;99730.97;5053676;28;20420;-80
2024/02/25 06:50:48;;;;;;;3.70;1.92;;;;;;;1.21;100.00;99735.84;5072460;28;20430;-80
2024/02/25 06:53:21;;;;;;;3.45;1.70;;;;;;;1.19;100.00;99733.41;5054819;28;21023;-81
2024/02/25 06:55:54;;;;;;;3.83;1.73;;;;;;;1.21;100.00;99735.84;5058817;28;20418;-80
2024/02/25 06:58:24;;;;;;;4.38;1.50;;;;;;;1.22;100.00;99737.50;5077471;28;20430;-80
2024/02/25 07:00:57;;;;;;;5.75;1.85;;;;;;;1.22;100.00;99740.16;5061920;28;20734;-81
2024/02/25 07:03:31;;;;;;;5.25;1.80;;;;;;;1.27;100.00;99736.75;5052969;28;20427;-81
2024/02/25 07:06:04;;;;;;;4.33;1.63;;;;;;;1.30;100.00;99736.28;5075205;28;20513;-80
2024/02/25 07:08:33;;;;;;;5.80;1.60;;;;;;;1.34;100.00;99738.25;5073543;28;20437;-81
2024/02/25 07:11:15;;;;;;;5.20;1.80;;;;;;;1.38;100.00;99735.06;5055614;28;20426;-80
2024/02/25 07:13:46;;;;;;;4.90;1.90;;;;;;;1.45;100.00;99741.91;5054182;28;20954;-84
2024/02/25 07:16:14;;;;;;;4.45;1.60;;;;;;;1.50;100.00;99735.81;5076387;28;20410;-79
2024/02/25 07:18:48;;;;;;;3.13;1.50;;;;;;;1.52;100.00;99739.88;5072917;28;20493;-80
2024/02/25 07:21:16;;;;;;;3.17;1.50;;;;;;;1.50;100.00;99741.97;5072249;28;20417;-80
2024/02/25 07:23:49;;;;;;;4.18;1.65;;;;;;;1.49;100.00;99736.84;5063015;28;20430;-81
2024/02/25 07:26:17;;;;;;;3.05;1.50;;;;;;;1.51;100.00;99740.94;5077481;28;20788;-80
2024/02/25 07:28:53;;;;;;;4.40;1.90;;;;;;;1.49;100.00;99740.38;5072237;28;20432;-79
2024/02/25 07:31:26;;;;;;;6.10;2.38;;;;;;;1.60;100.00;99746.72;5063852;28;20421;-81
2024/02/25 07:33:59;;;;;;;3.38;1.50;;;;;;;1.65;100.00;99748.66;5073009;28;20433;-81
2024/02/25 07:36:33;;;;;;;3.05;1.60;;;;;;;1.69;100.00;99749.81;5054234;28;20796;-79
2024/02/25 07:39:06;;;;;;;4.47;1.80;;;;;;;1.75;100.00;99753.38;5059811;28;20426;-81
2024/02/25 07:41:39;;;;;;;5.05;1.67;;;;;;;1.75;100.00;99751.50;5059843;28;20422;-80
2024/02/25 07:44:14;;;;;;;5.35;2.35;;;;;;;1.81;100.00;99753.22;5073652;28;20430;-82
2024/02/25 07:46:47;;;;;;;4.32;1.70;;;;;;;1.85;100.00;99753.53;5076031;28;20422;-80
2024/02/25 07:49:20;;;;;;;4.28;1.38;;;;;;;1.93;100.00;99755.00;5057111;28;20422;-80
2024/02/25 07:51:50;;;;;;;5.20;1.63;;;;;;;1.91;100.00;99747.19;5074598;28;20578;-81
2024/02/25 07:54:24;;;;;;;4.05;1.80;;;;;;;1.95;100.00;99752.91;5079577;28;20428;-80
2024/02/25 07:56:57;;;;;;;3.20;1.30;;;;;;;1.86;100.00;99736.38;5076376;28;20432;-82
2024/02/25 07:59:32;;;;;;;2.95;1.42;;;;;;;1.89;100.00;99745.81;5074626;28;20444;-82
2024/02/25 08:02:05;;;;;;;3.70;1.67;;;;;;;1.91;100.00;99739.13;5070878;28;20423;-80
2024/02/25 08:04:38;;;;;;;3.30;1.40;;;;;;;1.92;100.00;99750.69;5053383;28;20432;-80
2024/02/25 08:07:11;;;;;;;3.42;1.73;;;;;;;1.95;100.00;99745.66;5055302;28;20422;-81
2024/02/25 08:09:39;;;;;;;3.97;2.10;;;;;;;1.92;100.00;99742.63;5072459;28;20957;-81
2024/02/25 08:12:13;;;;;;;5.07;2.60;;;;;;;1.94;100.00;99735.16;5058136;28;20438;-81
2024/02/25 08:14:47;;;;;;;4.20;2.10;;;;;;;2.06;100.00;99730.50;5058308;28;20442;-80
2024/02/25 08:17:16;;;;;;;4.03;1.77;;;;;;;2.18;100.00;99725.84;5057770;28;20430;-79
2024/02/25 08:19:44;;;;;;;5.82;1.83;;;;;;;2.19;100.00;99729.34;5061444;28;20440;-80
2024/02/25 08:22:12;;;;;;;2.70;1.40;;;;;;;2.24;100.00;99723.22;5076664;28;21177;-81
2024/02/25 08:24:46;;;;;;;3.78;1.63;;;;;;;2.27;100.00;99736.16;5075766;28;20423;-81
2024/02/25 08:27:20;;;;;;;3.85;1.73;;;;;;;2.26;100.00;99734.53;5074423;28;20432;-80
2024/02/25 08:29:54;;;;;;;3.53;1.70;;;;;;;2.35;100.00;99743.78;5057579;28;20783;-80
2024/02/25 08:32:28;;;;;;;3.88;1.48;;;;;;;2.37;100.00;99725.53;5069072;28;20418;-79
2024/02/25 08:34:56;;;;;;;2.50;1.23;;;;;;;2.48;100.00;99727.28;5071706;28;20422;-81
2024/02/25 08:37:26;;;;;;;4.53;1.80;;;;;;;2.53;100.00;99726.56;5055123;28;20431;-82
2024/02/25 08:39:59;;;;;;;4.30;1.52;;;;;;;2.68;100.00;99724.06;5071438;28;20772;-81
2024/02/25 08:42:32;;;;;;;3.30;1.50;;;;;;;2.75;100.00;99728.41;5072064;28;20908;-81
2024/02/25 08:45:08;;;;;;;3.78;1.40;;;;;;;2.78;100.00;99722.56;5072450;28;20425;-80
2024/02/25 08:47:42;;;;;;;4.57;1.73;;;;;;;2.80;100.00;99717.72;5071663;28;20479;-81
2024/02/25 08:50:15;;;;;;;3.83;1.80;;;;;;;2.80;100.00;99718.53;5061036;28;20429;-83
2024/02/25 08:52:48;;;;;;;4.38;2.13;;;;;;;2.91;100.00;99726.72;5068231;28;20419;-81
2024/02/25 08:55:17;;;;;;;3.33;1.70;;;;;;;3.00;100.00;99727.91;5064650;28;20426;-82
2024/02/25 08:57:50;;;;;;;3.45;1.60;;;;;;;3.05;100.00;99728.75;5078222;28;20426;-82
2024/02/25 09:00:25;;;;;;;3.17;1.33;;;;;;;3.09;100.00;99729.03;5050185;28;20424;-82
2024/02/25 09:02:59;;;;;;;4.68;1.70;;;;;;;3.06;100.00;99740.31;5068099;28;20418;-83
2024/02/25 09:05:28;;;;;;;4.07;1.50;;;;;;;3.06;100.00;99738.44;5052657;28;20434;-83
2024/02/25 09:08:01;;;;;;;2.25;1.30;;;;;;;3.14;100.00;99728.31;5020989;28;20426;-80
2024/02/25 09:10:31;;;;;;;4.97;2.07;;;;;;;3.16;100.00;99735.06;5042278;28;20424;-82
2024/02/25 09:13:00;;;;;;;4.50;1.80;;;;;;;3.24;100.00;99736.47;5050605;28;20433;-82
2024/02/25 09:15:35;;;;;;;4.32;2.00;;;;;;;3.25;100.00;99729.22;5059178;28;20416;-81
2024/02/25 09:18:08;;;;;;;3.42;1.50;;;;;;;3.42;100.00;99732.59;5075965;28;20428;-82
2024/02/25 09:20:37;;;;;;;4.03;1.85;;;;;;;3.46;100.00;99727.53;5070104;28;20434;-82
2024/02/25 09:23:11;;;;;;;4.00;1.80;;;;;;;3.56;100.00;99736.50;5056294;28;20427;-82
2024/02/25 09:25:44;;;;;;;5.83;2.27;;;;;;;3.57;100.00;99734.59;5072471;28;21028;-83
2024/02/25 09:28:19;;;;;;;4.45;1.90;;;;;;;3.65;100.00;99734.13;5080291;28;20422;-82
2024/02/25 09:30:53;;;;;;;4.47;2.35;;;;;;;3.56;100.00;99723.03;5068182;28;20442;-83
2024/02/25 09:33:23;;;;;;;3.90;1.80;;;;;;;3.67;100.00;99737.34;5059702;28;20423;-82
2024/02/25 09:35:56;;;;;;;4.05;1.88;;;;;;;3.72;100.00;99734.72;5080226;28;20427;-81
2024/02/25 09:38:26;;;;;;;3.78;1.60;;;;;;;3.89;100.00;99723.81;5064949;28;20439;-82
2024/02/25 09:41:01;;;;;;;4.32;2.03;;;;;;;3.90;100.00;99724.63;5065610;28;20435;-79
2024/02/25 09:43:34;;;;;;;5.47;2.53;;;;;;;3.89;100.00;99726.50;5073353;28;20433;-80
2024/02/25 09:46:10;;;;;;;5.63;2.10;;;;;;;3.89;100.00;99729.22;5059865;28;20437;-80
2024/02/25 09:48:39;;;;;;;4.03;1.80;;;;;;;3.94;100.00;99728.41;5051281;28;20432;-80
2024/02/25 09:51:08;;;;;;;4.38;2.10;;;;;;;3.94;100.00;99727.63;5072370;28;20443;-79
2024/02/25 09:53:40;;;;;;;4.32;1.83;;;;;;;3.86;100.00;99732.41;5072724;28;20423;-81
2024/02/25 09:56:13;;;;;;;6.07;2.20;;;;;;;3.96;100.00;99728.97;5071160;28;20961;-80
2024/02/25 09:58:42;;;;;;;4.13;1.80;;;;;;;3.96;100.00;99728.97;5037013;28;20438;-81
2024/02/25 10:01:17;;;;;;;4.35;1.80;;;;;;;3.92;100.00;99726.00;5052797;28;20430;-80
2024/02/25 10:03:50;;;;;;;3.70;1.95;;;;;;;3.88;100.00;99732.13;5059631;28;20492;-81
2024/02/25 10:06:25;;;;;;;3.08;1.60;;;;;;;3.96;100.00;99728.16;5035059;28;20841;-81
2024/02/25 10:08:58;;;;;;;4.20;1.70;;;;;;;3.88;100.00;99722.19;5043807;28;20433;-81
2024/02/25 10:11:31;;;;;;;4.38;1.70;;;;;;;3.95;100.00;99734.59;5029916;28;20958;-81
2024/02/25 10:14:04;;;;;;;3.08;1.55;;;;;;;4.03;100.00;99726.03;5036950;28;20425;-81
2024/02/25 10:16:39;;;;;;;4.82;1.73;;;;;;;4.04;100.00;99730.38;5036246;28;20771;-81
2024/02/25 10:19:12;;;;;;;4.25;1.70;;;;;;;3.92;100.00;99735.94;5036391;28;20437;-80
2024/02/25 10:21:45;;;;;;;4.07;1.80;;;;;;;3.91;100.00;99720.88;5060692;28;20425;-81
2024/02/25 10:24:29;;;;;;;8.30;3.08;;;;;;;3.90;100.00;99720.03;5035068;28;20442;-80
2024/02/25 10:27:09;;;;;;;10.80;3.47;;;;;;;3.82;100.00;99720.53;5032889;28;20430;-81
2024/02/25 10:29:53;;;;;;;8.90;2.72;;;;;;;3.74;100.00;99724.53;5054331;28;20449;-81
2024/02/25 10:32:24;;;;;;;8.35;2.83;;;;;;;3.73;100.00;99722.88;5052720;28;20415;-81
2024/02/25 10:34:58;;;;;;;6.97;2.67;;;;;;;3.85;100.00;99724.56;5038685;28;20410;-81
2024/02/25 10:37:32;;;;;;;5.50;2.20;;;;;;;3.80;100.00;99719.16;5037896;28;20433;-81
2024/02/25 10:40:05;;;;;;;6.93;2.10;;;;;;;3.90;100.00;99720.03;5034313;28;20771;-81
2024/02/25 10:42:44;;;;;;;4.82;2.17;;;;;;;3.93;100.00;99713.34;5041383;28;20427;-81
2024/02/25 10:45:19;;;;;;;3.70;1.85;;;;;;;3.90;100.00;99703.88;5063314;28;20414;-82
2024/02/25 10:47:55;;;;;;;3.72;2.10;;;;;;;4.05;100.00;99702.38;5037130;28;20434;-81
2024/02/25 10:50:25;;;;;;;4.20;1.85;;;;;;;4.17;100.00;99702.16;5038596;28;20429;-81
2024/02/25 10:53:01;;;;;;;5.10;2.00;;;;;;;4.13;100.00;99699.19;5053093;28;20418;-81
2024/02/25 10:55:35;;;;;;;5.00;1.85;;;;;;;4.19;100.00;99692.75;5040299;28;20430;-81
2024/02/25 10:58:04;;;;;;;5.70;2.08;;;;;;;4.15;100.00;99683.56;5053931;28;20430;-81
2024/02/25 11:00:32;;;;;;;4.70;2.07;;;;;;;4.21;100.00;99689.78;5028368;28;20433;-81
2024/02/25 11:03:08;;;;;;;7.78;3.88;;;;;;;4.41;100.00;99686.41;5045772;28;21169;-81
2024/02/25 11:05:42;;;;;;;7.67;3.87;;;;;;;4.48;100.00;99681.56;5035957;28;20436;-81
2024/02/25 11:08:27;;;;;;;5.07;2.45;;;;;;;4.62;100.00;99675.69;5035862;28;20442;-81
2024/02/25 11:11:01;;;;;;;5.47;1.90;;;;;;;4.73;100.00;99674.63;5038069;28;20987;-80
2024/02/25 11:13:29;;;;;;;4.07;2.00;;;;;;;4.89;100.00;99678.19;5057969;28;20444;-81
2024/02/25 11:16:04;;;;;;;5.53;2.40;;;;;;;4.82;100.00;99678.44;5039888;28;20434;-81
2024/02/25 11:18:34;;;;;;;5.70;2.28;;;;;;;4.74;100.00;99678.97;5059694;28;20425;-81
2024/02/25 11:21:09;;;;;;;4.23;1.90;;;;;;;4.77;100.00;99678.41;5059199;28;20492;-81
2024/02/25 11:23:44;;;;;;;5.80;2.05;;;;;;;4.76;100.00;99683.03;5057248;28;20419;-81
2024/02/25 11:26:42;;;;;;;5.18;2.20;;;;;;;4.84;100.00;99673.59;5055601;28;20426;-81
2024/02/25 11:29:17;;;;;;;5.25;2.40;;;;;;;4.89;100.00;99667.41;5057198;28;20423;-82
2024/02/25 11:31:52;;;;;;;3.95;2.00;;;;;;;5.10;100.00;99666.34;5059954;28;20429;-81
2024/02/25 11:34:28;;;;;;;5.15;2.05;;;;;;;5.23;100.00;99666.88;5063795;28;21202;-81
2024/02/25 11:37:02;;;;;;;6.68;2.90;;;;;;;5.18;100.00;99656.09;5055868;28;21106;-81
2024/02/25 11:39:32;;;;;;;5.35;2.38;;;;;;;5.17;100.00;99666.09;5047484;28;21292;-81
2024/02/25 11:42:01;;;;;;;4.80;2.17;;;;;;;5.30;100.00;99658.53;5044933;28;20426;-81
2024/02/25 11:44:36;;;;;;;3.83;1.70;;;;;;;5.30;100.00;99647.75;5038404;28;20433;-81
2024/02/25 11:47:09;;;;;;;3.63;1.77;;;;;;;5.38;100.00;99644.50;5048361;28;20429;-82
2024/02/25 11:49:43;;;;;;;5.47;1.77;;;;;;;5.60;100.00;99646.91;5032034;28;20445;-81
2024/02/25 11:52:18;;;;;;;4.78;1.80;;;;;;;5.62;100.00;99636.63;5030445;28;20431;-81
2024/02/25 11:54:51;;;;;;;4.93;2.20;;;;;;;5.69;100.00;99642.59;5054095;28;20430;-81
2024/02/25 11:57:27;;;;;;;4.55;1.88;;;;;;;5.81;100.00;99639.56;5037708;28;20483;-81